sensor_id;sensor_type;location;lat;lon;timestamp;P1;durP1;ratioP1;P2;durP2;ratioP2
11996;SDS011;6058;48.704;9.474;2022-07-29T00:01:13;4.10;;;3.65;;
11996;SDS011;6058;48.704;9.474;2022-07-29T00:03:41;5.28;;;3.50;;
11996;SDS011;6058;48.704;9.474;2022-07-29T00:06:09;3.50;;;3.20;;
11996;SDS011;6058;48.704;9.474;2022-07-29T00:08:36;6.57;;;3.55;;
11996;SDS011;6058;48.704;9.474;2022-07-29T00:11:03;3.88;;;3.47;;
11996;SDS011;6058;48.704;9.474;2022-07-29T00:13:31;3.83;;;3.40;;
11996;SDS011;6058;48.704;9.474;2022-07-29T00:15:58;5.25;;;3.97;;
11996;SDS011;6058;48.704;9.474;2022-07-29T00:18:25;3.05;;;2.75;;
11996;SDS011;6058;48.704;9.474;2022-07-29T00:20:52;3.95;;;3.65;;
11996;SDS011;6058;48.704;9.474;2022-07-29T00:23:22;3.75;;;3.40;;
11996;SDS011;6058;48.704;9.474;2022-07-29T00:25:49;5.35;;;3.92;;
11996;SDS011;6058;48.704;9.474;2022-07-29T00:28:16;4.00;;;3.70;;
11996;SDS011;6058;48.704;9.474;2022-07-29T00:30:43;4.25;;;3.85;;
11996;SDS011;6058;48.704;9.474;2022-07-29T00:33:11;3.63;;;3.28;;
11996;SDS011;6058;48.704;9.474;2022-07-29T00:35:38;5.00;;;3.70;;
11996;SDS011;6058;48.704;9.474;2022-07-29T00:38:10;4.55;;;4.15;;
11996;SDS011;6058;48.704;9.474;2022-07-29T00:40:39;3.97;;;3.50;;
11996;SDS011;6058;48.704;9.474;2022-07-29T00:43:06;7.50;;;3.40;;
11996;SDS011;6058;48.704;9.474;2022-07-29T00:45:34;5.15;;;3.42;;
11996;SDS011;6058;48.704;9.474;2022-07-29T00:48:01;3.35;;;3.05;;
11996;SDS011;6058;48.704;9.474;2022-07-29T00:50:29;4.03;;;3.45;;
11996;SDS011;6058;48.704;9.474;2022-07-29T00:52:57;4.15;;;3.40;;
11996;SDS011;6058;48.704;9.474;2022-07-29T00:55:24;4.22;;;3.83;;
11996;SDS011;6058;48.704;9.474;2022-07-29T00:57:53;3.90;;;3.60;;
11996;SDS011;6058;48.704;9.474;2022-07-29T01:00:21;3.78;;;3.47;;
11996;SDS011;6058;48.704;9.474;2022-07-29T01:02:48;6.50;;;3.50;;
11996;SDS011;6058;48.704;9.474;2022-07-29T01:05:16;3.40;;;3.10;;
11996;SDS011;6058;48.704;9.474;2022-07-29T01:07:44;3.67;;;3.38;;
11996;SDS011;6058;48.704;9.474;2022-07-29T01:10:12;3.75;;;3.42;;
11996;SDS011;6058;48.704;9.474;2022-07-29T01:12:40;5.50;;;3.78;;
11996;SDS011;6058;48.704;9.474;2022-07-29T01:15:09;3.60;;;3.30;;
11996;SDS011;6058;48.704;9.474;2022-07-29T01:17:36;4.75;;;3.55;;
11996;SDS011;6058;48.704;9.474;2022-07-29T01:20:07;4.07;;;3.67;;
11996;SDS011;6058;48.704;9.474;2022-07-29T01:22:37;5.75;;;3.25;;
11996;SDS011;6058;48.704;9.474;2022-07-29T01:25:17;4.97;;;3.88;;
11996;SDS011;6058;48.704;9.474;2022-07-29T01:28:00;3.30;;;3.00;;
11996;SDS011;6058;48.704;9.474;2022-07-29T01:30:29;4.03;;;3.58;;
11996;SDS011;6058;48.704;9.474;2022-07-29T01:32:59;3.08;;;2.88;;
11996;SDS011;6058;48.704;9.474;2022-07-29T01:35:28;5.53;;;3.35;;
11996;SDS011;6058;48.704;9.474;2022-07-29T01:38:00;3.38;;;3.08;;
11996;SDS011;6058;48.704;9.474;2022-07-29T01:40:29;3.50;;;3.20;;
11996;SDS011;6058;48.704;9.474;2022-07-29T01:42:58;3.05;;;2.85;;
11996;SDS011;6058;48.704;9.474;2022-07-29T01:45:28;3.90;;;3.17;;
11996;SDS011;6058;48.704;9.474;2022-07-29T01:48:00;3.00;;;2.75;;
11996;SDS011;6058;48.704;9.474;2022-07-29T01:50:29;4.68;;;3.25;;
11996;SDS011;6058;48.704;9.474;2022-07-29T01:52:58;6.50;;;3.55;;
11996;SDS011;6058;48.704;9.474;2022-07-29T01:55:31;3.75;;;2.88;;
11996;SDS011;6058;48.704;9.474;2022-07-29T01:57:58;3.55;;;3.35;;
11996;SDS011;6058;48.704;9.474;2022-07-29T02:00:26;3.70;;;3.40;;
11996;SDS011;6058;48.704;9.474;2022-07-29T02:02:54;5.05;;;3.30;;
11996;SDS011;6058;48.704;9.474;2022-07-29T02:05:24;3.95;;;3.38;;
11996;SDS011;6058;48.704;9.474;2022-07-29T02:07:54;3.03;;;2.72;;
11996;SDS011;6058;48.704;9.474;2022-07-29T02:10:23;3.88;;;3.20;;
11996;SDS011;6058;48.704;9.474;2022-07-29T02:12:52;4.65;;;2.97;;
11996;SDS011;6058;48.704;9.474;2022-07-29T02:15:20;3.38;;;3.08;;
11996;SDS011;6058;48.704;9.474;2022-07-29T02:17:50;4.32;;;2.58;;
11996;SDS011;6058;48.704;9.474;2022-07-29T02:20:18;3.13;;;2.85;;
11996;SDS011;6058;48.704;9.474;2022-07-29T02:22:47;3.20;;;2.90;;
11996;SDS011;6058;48.704;9.474;2022-07-29T02:25:15;3.30;;;3.00;;
11996;SDS011;6058;48.704;9.474;2022-07-29T02:27:43;3.45;;;3.22;;
11996;SDS011;6058;48.704;9.474;2022-07-29T02:30:12;3.25;;;3.00;;
11996;SDS011;6058;48.704;9.474;2022-07-29T02:32:40;4.22;;;3.05;;
11996;SDS011;6058;48.704;9.474;2022-07-29T02:35:08;3.80;;;3.27;;
11996;SDS011;6058;48.704;9.474;2022-07-29T02:37:36;4.40;;;3.22;;
11996;SDS011;6058;48.704;9.474;2022-07-29T02:40:05;3.40;;;3.10;;
11996;SDS011;6058;48.704;9.474;2022-07-29T02:42:35;3.88;;;3.35;;
11996;SDS011;6058;48.704;9.474;2022-07-29T02:45:03;4.03;;;3.63;;
11996;SDS011;6058;48.704;9.474;2022-07-29T02:47:33;3.50;;;3.20;;
11996;SDS011;6058;48.704;9.474;2022-07-29T02:50:02;3.72;;;3.42;;
11996;SDS011;6058;48.704;9.474;2022-07-29T02:52:34;4.07;;;3.67;;
11996;SDS011;6058;48.704;9.474;2022-07-29T02:55:07;4.55;;;3.35;;
11996;SDS011;6058;48.704;9.474;2022-07-29T02:57:36;2.83;;;2.63;;
11996;SDS011;6058;48.704;9.474;2022-07-29T03:00:06;2.90;;;2.70;;
11996;SDS011;6058;48.704;9.474;2022-07-29T03:02:34;3.10;;;2.90;;
11996;SDS011;6058;48.704;9.474;2022-07-29T03:05:02;3.25;;;2.80;;
11996;SDS011;6058;48.704;9.474;2022-07-29T03:07:29;2.97;;;2.78;;
11996;SDS011;6058;48.704;9.474;2022-07-29T03:09:56;5.43;;;3.30;;
11996;SDS011;6058;48.704;9.474;2022-07-29T03:12:26;3.78;;;3.47;;
11996;SDS011;6058;48.704;9.474;2022-07-29T03:14:53;2.70;;;2.60;;
11996;SDS011;6058;48.704;9.474;2022-07-29T03:17:20;5.43;;;3.20;;
11996;SDS011;6058;48.704;9.474;2022-07-29T03:19:48;3.20;;;3.00;;
11996;SDS011;6058;48.704;9.474;2022-07-29T03:22:15;4.03;;;3.60;;
11996;SDS011;6058;48.704;9.474;2022-07-29T03:24:42;3.40;;;3.10;;
11996;SDS011;6058;48.704;9.474;2022-07-29T03:27:09;2.97;;;2.78;;
11996;SDS011;6058;48.704;9.474;2022-07-29T03:29:38;3.72;;;3.42;;
11996;SDS011;6058;48.704;9.474;2022-07-29T03:32:05;3.37;;;3.03;;
11996;SDS011;6058;48.704;9.474;2022-07-29T03:34:32;5.13;;;4.03;;
11996;SDS011;6058;48.704;9.474;2022-07-29T03:36:59;5.47;;;3.43;;
11996;SDS011;6058;48.704;9.474;2022-07-29T03:39:27;3.10;;;2.90;;
11996;SDS011;6058;48.704;9.474;2022-07-29T03:41:56;5.63;;;3.53;;
11996;SDS011;6058;48.704;9.474;2022-07-29T03:44:24;3.30;;;2.43;;
11996;SDS011;6058;48.704;9.474;2022-07-29T03:46:54;3.50;;;3.30;;
11996;SDS011;6058;48.704;9.474;2022-07-29T03:49:23;3.37;;;3.17;;
11996;SDS011;6058;48.704;9.474;2022-07-29T03:51:51;3.25;;;3.05;;
11996;SDS011;6058;48.704;9.474;2022-07-29T03:54:18;3.30;;;3.10;;
11996;SDS011;6058;48.704;9.474;2022-07-29T03:56:46;2.97;;;2.77;;
11996;SDS011;6058;48.704;9.474;2022-07-29T03:59:15;2.80;;;2.60;;
11996;SDS011;6058;48.704;9.474;2022-07-29T04:01:44;3.03;;;2.83;;
11996;SDS011;6058;48.704;9.474;2022-07-29T04:04:13;3.50;;;2.53;;
11996;SDS011;6058;48.704;9.474;2022-07-29T04:06:41;3.00;;;2.80;;
11996;SDS011;6058;48.704;9.474;2022-07-29T04:09:08;3.05;;;2.85;;
11996;SDS011;6058;48.704;9.474;2022-07-29T04:11:36;2.90;;;2.70;;
11996;SDS011;6058;48.704;9.474;2022-07-29T04:14:04;3.53;;;2.57;;
11996;SDS011;6058;48.704;9.474;2022-07-29T04:16:32;3.30;;;3.00;;
11996;SDS011;6058;48.704;9.474;2022-07-29T04:18:59;3.73;;;2.90;;
11996;SDS011;6058;48.704;9.474;2022-07-29T04:21:28;2.90;;;2.70;;
11996;SDS011;6058;48.704;9.474;2022-07-29T04:23:55;3.70;;;3.40;;
11996;SDS011;6058;48.704;9.474;2022-07-29T04:26:22;2.77;;;2.57;;
11996;SDS011;6058;48.704;9.474;2022-07-29T04:28:49;3.13;;;2.83;;
11996;SDS011;6058;48.704;9.474;2022-07-29T04:31:17;3.57;;;2.90;;
11996;SDS011;6058;48.704;9.474;2022-07-29T04:33:44;3.50;;;3.07;;
11996;SDS011;6058;48.704;9.474;2022-07-29T04:36:11;3.10;;;2.90;;
11996;SDS011;6058;48.704;9.474;2022-07-29T04:38:40;2.77;;;2.57;;
11996;SDS011;6058;48.704;9.474;2022-07-29T04:41:07;2.73;;;2.53;;
11996;SDS011;6058;48.704;9.474;2022-07-29T04:43:35;3.03;;;2.80;;
11996;SDS011;6058;48.704;9.474;2022-07-29T04:46:02;5.40;;;2.93;;
11996;SDS011;6058;48.704;9.474;2022-07-29T04:48:29;6.03;;;3.10;;
11996;SDS011;6058;48.704;9.474;2022-07-29T04:50:57;7.00;;;3.40;;
11996;SDS011;6058;48.704;9.474;2022-07-29T04:53:24;3.17;;;2.97;;
11996;SDS011;6058;48.704;9.474;2022-07-29T04:55:52;5.07;;;3.83;;
11996;SDS011;6058;48.704;9.474;2022-07-29T04:58:19;3.63;;;3.33;;
11996;SDS011;6058;48.704;9.474;2022-07-29T05:00:48;3.40;;;3.20;;
11996;SDS011;6058;48.704;9.474;2022-07-29T05:03:15;3.47;;;3.27;;
11996;SDS011;6058;48.704;9.474;2022-07-29T05:05:42;3.37;;;3.10;;
11996;SDS011;6058;48.704;9.474;2022-07-29T05:08:09;3.57;;;3.23;;
11996;SDS011;6058;48.704;9.474;2022-07-29T05:10:36;3.20;;;2.87;;
11996;SDS011;6058;48.704;9.474;2022-07-29T05:13:05;4.60;;;3.30;;
11996;SDS011;6058;48.704;9.474;2022-07-29T05:15:33;4.20;;;3.33;;
11996;SDS011;6058;48.704;9.474;2022-07-29T05:18:00;5.50;;;3.27;;
11996;SDS011;6058;48.704;9.474;2022-07-29T05:20:27;3.33;;;3.03;;
11996;SDS011;6058;48.704;9.474;2022-07-29T05:22:55;2.87;;;2.67;;
11996;SDS011;6058;48.704;9.474;2022-07-29T05:25:23;4.23;;;3.03;;
11996;SDS011;6058;48.704;9.474;2022-07-29T05:27:50;3.43;;;2.97;;
11996;SDS011;6058;48.704;9.474;2022-07-29T05:30:19;3.67;;;3.37;;
11996;SDS011;6058;48.704;9.474;2022-07-29T05:32:46;4.23;;;3.40;;
11996;SDS011;6058;48.704;9.474;2022-07-29T05:37:41;3.50;;;3.20;;
11996;SDS011;6058;48.704;9.474;2022-07-29T05:40:09;3.83;;;3.20;;
11996;SDS011;6058;48.704;9.474;2022-07-29T05:42:36;3.50;;;3.20;;
11996;SDS011;6058;48.704;9.474;2022-07-29T05:45:04;4.67;;;3.50;;
11996;SDS011;6058;48.704;9.474;2022-07-29T05:47:32;5.00;;;3.50;;
11996;SDS011;6058;48.704;9.474;2022-07-29T05:49:59;4.80;;;3.47;;
11996;SDS011;6058;48.704;9.474;2022-07-29T05:52:26;5.43;;;3.25;;
11996;SDS011;6058;48.704;9.474;2022-07-29T05:54:54;6.15;;;3.75;;
11996;SDS011;6058;48.704;9.474;2022-07-29T05:57:22;6.60;;;3.63;;
11996;SDS011;6058;48.704;9.474;2022-07-29T05:59:49;7.38;;;3.63;;
11996;SDS011;6058;48.704;9.474;2022-07-29T06:02:17;5.45;;;4.03;;
11996;SDS011;6058;48.704;9.474;2022-07-29T06:04:45;4.13;;;3.78;;
11996;SDS011;6058;48.704;9.474;2022-07-29T06:07:13;3.78;;;3.42;;
11996;SDS011;6058;48.704;9.474;2022-07-29T06:09:41;4.28;;;3.83;;
11996;SDS011;6058;48.704;9.474;2022-07-29T06:12:08;3.65;;;3.35;;
11996;SDS011;6058;48.704;9.474;2022-07-29T06:14:36;3.60;;;3.22;;
11996;SDS011;6058;48.704;9.474;2022-07-29T06:17:03;11.20;;;3.90;;
11996;SDS011;6058;48.704;9.474;2022-07-29T06:19:31;5.18;;;3.67;;
11996;SDS011;6058;48.704;9.474;2022-07-29T06:22:02;7.72;;;3.80;;
11996;SDS011;6058;48.704;9.474;2022-07-29T06:24:29;3.70;;;3.03;;
11996;SDS011;6058;48.704;9.474;2022-07-29T06:26:56;5.70;;;3.67;;
11996;SDS011;6058;48.704;9.474;2022-07-29T06:29:23;4.10;;;3.70;;
11996;SDS011;6058;48.704;9.474;2022-07-29T06:31:50;4.10;;;3.70;;
11996;SDS011;6058;48.704;9.474;2022-07-29T06:34:17;4.20;;;3.55;;
11996;SDS011;6058;48.704;9.474;2022-07-29T06:36:45;4.60;;;4.07;;
11996;SDS011;6058;48.704;9.474;2022-07-29T06:39:13;3.47;;;2.95;;
11996;SDS011;6058;48.704;9.474;2022-07-29T06:41:40;4.15;;;3.53;;
11996;SDS011;6058;48.704;9.474;2022-07-29T06:44:08;4.13;;;3.38;;
11996;SDS011;6058;48.704;9.474;2022-07-29T06:46:35;6.57;;;3.80;;
11996;SDS011;6058;48.704;9.474;2022-07-29T06:49:03;3.20;;;2.90;;
11996;SDS011;6058;48.704;9.474;2022-07-29T06:51:30;5.35;;;3.70;;
11996;SDS011;6058;48.704;9.474;2022-07-29T06:53:57;4.00;;;3.60;;
11996;SDS011;6058;48.704;9.474;2022-07-29T06:56:27;3.67;;;3.38;;
11996;SDS011;6058;48.704;9.474;2022-07-29T06:58:54;4.35;;;3.20;;
11996;SDS011;6058;48.704;9.474;2022-07-29T07:01:21;3.83;;;3.42;;
11996;SDS011;6058;48.704;9.474;2022-07-29T07:03:48;4.38;;;3.97;;
11996;SDS011;6058;48.704;9.474;2022-07-29T07:06:15;6.18;;;3.70;;
11996;SDS011;6058;48.704;9.474;2022-07-29T07:08:42;4.85;;;3.63;;
11996;SDS011;6058;48.704;9.474;2022-07-29T07:11:10;3.53;;;3.05;;
11996;SDS011;6058;48.704;9.474;2022-07-29T07:13:38;6.40;;;3.20;;
11996;SDS011;6058;48.704;9.474;2022-07-29T07:16:05;3.70;;;3.40;;
11996;SDS011;6058;48.704;9.474;2022-07-29T07:18:32;3.95;;;3.08;;
11996;SDS011;6058;48.704;9.474;2022-07-29T07:20:59;4.03;;;3.20;;
11996;SDS011;6058;48.704;9.474;2022-07-29T07:23:27;12.10;;;3.20;;
11996;SDS011;6058;48.704;9.474;2022-07-29T07:25:54;6.78;;;3.17;;
11996;SDS011;6058;48.704;9.474;2022-07-29T07:28:21;3.47;;;2.60;;
11996;SDS011;6058;48.704;9.474;2022-07-29T07:30:49;5.40;;;2.72;;
11996;SDS011;6058;48.704;9.474;2022-07-29T07:33:17;2.90;;;2.42;;
11996;SDS011;6058;48.704;9.474;2022-07-29T07:35:44;3.33;;;2.42;;
11996;SDS011;6058;48.704;9.474;2022-07-29T07:38:11;5.03;;;2.85;;
11996;SDS011;6058;48.704;9.474;2022-07-29T07:40:38;2.85;;;2.40;;
11996;SDS011;6058;48.704;9.474;2022-07-29T07:43:05;3.00;;;2.78;;
11996;SDS011;6058;48.704;9.474;2022-07-29T07:45:32;4.28;;;2.20;;
11996;SDS011;6058;48.704;9.474;2022-07-29T07:48:03;3.70;;;2.47;;
11996;SDS011;6058;48.704;9.474;2022-07-29T07:50:30;4.40;;;2.65;;
11996;SDS011;6058;48.704;9.474;2022-07-29T07:52:57;3.70;;;2.33;;
11996;SDS011;6058;48.704;9.474;2022-07-29T07:55:27;2.35;;;2.25;;
11996;SDS011;6058;48.704;9.474;2022-07-29T07:57:54;2.42;;;2.22;;
11996;SDS011;6058;48.704;9.474;2022-07-29T08:00:21;3.85;;;2.30;;
11996;SDS011;6058;48.704;9.474;2022-07-29T08:02:49;2.25;;;2.08;;
11996;SDS011;6058;48.704;9.474;2022-07-29T08:05:17;2.40;;;2.20;;
11996;SDS011;6058;48.704;9.474;2022-07-29T08:07:45;2.40;;;2.20;;
11996;SDS011;6058;48.704;9.474;2022-07-29T08:10:13;3.78;;;2.33;;
11996;SDS011;6058;48.704;9.474;2022-07-29T08:12:40;2.42;;;2.22;;
11996;SDS011;6058;48.704;9.474;2022-07-29T08:15:07;2.88;;;2.58;;
11996;SDS011;6058;48.704;9.474;2022-07-29T08:17:35;3.20;;;2.88;;
11996;SDS011;6058;48.704;9.474;2022-07-29T08:20:02;3.50;;;2.78;;
11996;SDS011;6058;48.704;9.474;2022-07-29T08:22:31;3.45;;;2.53;;
11996;SDS011;6058;48.704;9.474;2022-07-29T08:24:58;4.25;;;2.85;;
11996;SDS011;6058;48.704;9.474;2022-07-29T08:27:25;2.83;;;2.58;;
11996;SDS011;6058;48.704;9.474;2022-07-29T08:29:55;3.35;;;2.60;;
11996;SDS011;6058;48.704;9.474;2022-07-29T08:32:22;3.30;;;3.10;;
11996;SDS011;6058;48.704;9.474;2022-07-29T08:34:50;3.72;;;2.55;;
11996;SDS011;6058;48.704;9.474;2022-07-29T08:37:17;3.78;;;2.83;;
11996;SDS011;6058;48.704;9.474;2022-07-29T08:39:45;3.05;;;2.78;;
11996;SDS011;6058;48.704;9.474;2022-07-29T08:42:12;3.33;;;2.50;;
11996;SDS011;6058;48.704;9.474;2022-07-29T08:44:41;3.08;;;2.70;;
11996;SDS011;6058;48.704;9.474;2022-07-29T08:47:09;3.33;;;2.67;;
11996;SDS011;6058;48.704;9.474;2022-07-29T08:49:36;3.17;;;2.80;;
11996;SDS011;6058;48.704;9.474;2022-07-29T08:52:04;3.65;;;3.17;;
11996;SDS011;6058;48.704;9.474;2022-07-29T08:54:31;3.42;;;2.70;;
11996;SDS011;6058;48.704;9.474;2022-07-29T08:57:00;4.00;;;3.10;;
11996;SDS011;6058;48.704;9.474;2022-07-29T08:59:28;3.67;;;3.08;;
11996;SDS011;6058;48.704;9.474;2022-07-29T09:01:57;4.05;;;3.30;;
11996;SDS011;6058;48.704;9.474;2022-07-29T09:04:27;4.88;;;3.75;;
11996;SDS011;6058;48.704;9.474;2022-07-29T09:06:57;4.28;;;2.95;;
11996;SDS011;6058;48.704;9.474;2022-07-29T09:09:27;5.97;;;2.90;;
11996;SDS011;6058;48.704;9.474;2022-07-29T09:11:54;3.38;;;2.90;;
11996;SDS011;6058;48.704;9.474;2022-07-29T09:14:22;3.33;;;3.03;;
11996;SDS011;6058;48.704;9.474;2022-07-29T09:16:51;4.80;;;2.90;;
11996;SDS011;6058;48.704;9.474;2022-07-29T09:19:19;6.18;;;3.10;;
11996;SDS011;6058;48.704;9.474;2022-07-29T09:21:46;3.33;;;2.92;;
11996;SDS011;6058;48.704;9.474;2022-07-29T09:27:17;3.38;;;3.08;;
11996;SDS011;6058;48.704;9.474;2022-07-29T09:29:46;4.43;;;2.88;;
11996;SDS011;6058;48.704;9.474;2022-07-29T09:32:14;3.78;;;3.13;;
11996;SDS011;6058;48.704;9.474;2022-07-29T09:34:41;2.90;;;2.67;;
11996;SDS011;6058;48.704;9.474;2022-07-29T09:37:08;4.97;;;3.40;;
11996;SDS011;6058;48.704;9.474;2022-07-29T09:39:37;2.72;;;2.53;;
11996;SDS011;6058;48.704;9.474;2022-07-29T09:42:10;3.55;;;3.25;;
11996;SDS011;6058;48.704;9.474;2022-07-29T09:44:42;3.42;;;2.78;;
11996;SDS011;6058;48.704;9.474;2022-07-29T09:47:10;3.88;;;2.95;;
11996;SDS011;6058;48.704;9.474;2022-07-29T09:49:50;3.70;;;3.33;;
11996;SDS011;6058;48.704;9.474;2022-07-29T09:52:17;2.85;;;2.65;;
11996;SDS011;6058;48.704;9.474;2022-07-29T09:54:45;3.30;;;3.00;;
11996;SDS011;6058;48.704;9.474;2022-07-29T09:57:21;3.75;;;2.70;;
11996;SDS011;6058;48.704;9.474;2022-07-29T09:59:54;3.78;;;3.00;;
11996;SDS011;6058;48.704;9.474;2022-07-29T10:02:24;3.05;;;2.85;;
11996;SDS011;6058;48.704;9.474;2022-07-29T10:04:54;3.53;;;3.22;;
11996;SDS011;6058;48.704;9.474;2022-07-29T10:07:21;3.33;;;2.92;;
11996;SDS011;6058;48.704;9.474;2022-07-29T10:09:55;3.90;;;3.22;;
11996;SDS011;6058;48.704;9.474;2022-07-29T10:12:23;5.45;;;3.50;;
11996;SDS011;6058;48.704;9.474;2022-07-29T10:14:50;3.85;;;2.97;;
11996;SDS011;6058;48.704;9.474;2022-07-29T10:17:18;4.93;;;2.78;;
11996;SDS011;6058;48.704;9.474;2022-07-29T10:19:46;3.58;;;3.03;;
11996;SDS011;6058;48.704;9.474;2022-07-29T10:22:14;4.28;;;3.08;;
11996;SDS011;6058;48.704;9.474;2022-07-29T10:24:42;3.72;;;3.42;;
11996;SDS011;6058;48.704;9.474;2022-07-29T10:27:09;4.72;;;3.22;;
11996;SDS011;6058;48.704;9.474;2022-07-29T10:29:36;4.68;;;3.38;;
11996;SDS011;6058;48.704;9.474;2022-07-29T10:32:15;5.43;;;3.75;;
11996;SDS011;6058;48.704;9.474;2022-07-29T10:34:51;3.90;;;3.60;;
11996;SDS011;6058;48.704;9.474;2022-07-29T10:37:22;4.53;;;3.53;;
11996;SDS011;6058;48.704;9.474;2022-07-29T10:39:53;3.50;;;3.20;;
11996;SDS011;6058;48.704;9.474;2022-07-29T10:42:22;3.53;;;3.22;;
11996;SDS011;6058;48.704;9.474;2022-07-29T10:47:21;4.10;;;3.17;;
11996;SDS011;6058;48.704;9.474;2022-07-29T10:49:57;3.67;;;3.40;;
11996;SDS011;6058;48.704;9.474;2022-07-29T10:52:26;3.67;;;3.38;;
11996;SDS011;6058;48.704;9.474;2022-07-29T10:58:11;4.45;;;3.13;;
11996;SDS011;6058;48.704;9.474;2022-07-29T11:00:39;6.10;;;3.50;;
11996;SDS011;6058;48.704;9.474;2022-07-29T11:03:06;4.60;;;3.50;;
11996;SDS011;6058;48.704;9.474;2022-07-29T11:08:19;3.88;;;3.45;;
11996;SDS011;6058;48.704;9.474;2022-07-29T11:10:49;5.13;;;3.40;;
11996;SDS011;6058;48.704;9.474;2022-07-29T11:15:58;3.60;;;3.33;;
11996;SDS011;6058;48.704;9.474;2022-07-29T11:18:25;4.15;;;3.35;;
11996;SDS011;6058;48.704;9.474;2022-07-29T11:20:52;5.03;;;3.70;;
11996;SDS011;6058;48.704;9.474;2022-07-29T11:23:23;4.07;;;3.78;;
11996;SDS011;6058;48.704;9.474;2022-07-29T11:28:37;3.42;;;3.13;;
11996;SDS011;6058;48.704;9.474;2022-07-29T11:31:06;3.97;;;3.30;;
11996;SDS011;6058;48.704;9.474;2022-07-29T11:33:34;3.67;;;3.33;;
11996;SDS011;6058;48.704;9.474;2022-07-29T11:36:08;3.70;;;3.30;;
11996;SDS011;6058;48.704;9.474;2022-07-29T11:38:37;4.32;;;3.08;;
11996;SDS011;6058;48.704;9.474;2022-07-29T11:41:21;3.75;;;3.17;;
11996;SDS011;6058;48.704;9.474;2022-07-29T11:43:49;3.78;;;3.47;;
11996;SDS011;6058;48.704;9.474;2022-07-29T11:46:18;5.40;;;2.72;;
11996;SDS011;6058;48.704;9.474;2022-07-29T11:49:05;2.85;;;2.50;;
11996;SDS011;6058;48.704;9.474;2022-07-29T11:51:33;4.75;;;2.40;;
11996;SDS011;6058;48.704;9.474;2022-07-29T11:54:02;5.05;;;1.88;;
11996;SDS011;6058;48.704;9.474;2022-07-29T11:56:30;2.20;;;1.67;;
11996;SDS011;6058;48.704;9.474;2022-07-29T11:59:02;3.05;;;2.00;;
11996;SDS011;6058;48.704;9.474;2022-07-29T12:01:30;4.22;;;2.20;;
11996;SDS011;6058;48.704;9.474;2022-07-29T12:04:02;3.90;;;2.13;;
11996;SDS011;6058;48.704;9.474;2022-07-29T12:06:29;5.80;;;2.05;;
11996;SDS011;6058;48.704;9.474;2022-07-29T12:08:57;4.28;;;2.00;;
11996;SDS011;6058;48.704;9.474;2022-07-29T12:11:33;2.67;;;1.52;;
11996;SDS011;6058;48.704;9.474;2022-07-29T12:14:01;3.40;;;2.30;;
11996;SDS011;6058;48.704;9.474;2022-07-29T12:16:34;1.90;;;1.77;;
11996;SDS011;6058;48.704;9.474;2022-07-29T12:19:03;3.95;;;1.95;;
11996;SDS011;6058;48.704;9.474;2022-07-29T12:21:42;3.67;;;2.00;;
11996;SDS011;6058;48.704;9.474;2022-07-29T12:24:09;3.97;;;2.00;;
11996;SDS011;6058;48.704;9.474;2022-07-29T12:26:38;4.60;;;2.20;;
11996;SDS011;6058;48.704;9.474;2022-07-29T12:29:15;3.80;;;2.03;;
11996;SDS011;6058;48.704;9.474;2022-07-29T12:31:42;2.97;;;1.88;;
11996;SDS011;6058;48.704;9.474;2022-07-29T12:34:11;4.38;;;2.17;;
11996;SDS011;6058;48.704;9.474;2022-07-29T12:36:38;3.35;;;1.95;;
11996;SDS011;6058;48.704;9.474;2022-07-29T12:39:06;4.35;;;2.50;;
11996;SDS011;6058;48.704;9.474;2022-07-29T12:41:34;4.15;;;2.42;;
11996;SDS011;6058;48.704;9.474;2022-07-29T12:44:02;4.15;;;2.20;;
11996;SDS011;6058;48.704;9.474;2022-07-29T12:46:30;4.53;;;2.63;;
11996;SDS011;6058;48.704;9.474;2022-07-29T12:48:57;4.05;;;2.78;;
11996;SDS011;6058;48.704;9.474;2022-07-29T12:51:30;6.97;;;4.50;;
11996;SDS011;6058;48.704;9.474;2022-07-29T12:54:04;3.47;;;2.33;;
11996;SDS011;6058;48.704;9.474;2022-07-29T12:56:32;2.55;;;2.35;;
11996;SDS011;6058;48.704;9.474;2022-07-29T12:58:59;4.32;;;1.95;;
11996;SDS011;6058;48.704;9.474;2022-07-29T13:01:28;4.55;;;2.50;;
11996;SDS011;6058;48.704;9.474;2022-07-29T13:04:02;4.25;;;2.35;;
11996;SDS011;6058;48.704;9.474;2022-07-29T13:06:30;5.10;;;2.40;;
11996;SDS011;6058;48.704;9.474;2022-07-29T13:09:01;4.22;;;2.42;;
11996;SDS011;6058;48.704;9.474;2022-07-29T13:11:29;4.65;;;2.40;;
11996;SDS011;6058;48.704;9.474;2022-07-29T13:13:56;4.03;;;2.20;;
11996;SDS011;6058;48.704;9.474;2022-07-29T13:16:23;3.55;;;2.25;;
11996;SDS011;6058;48.704;9.474;2022-07-29T13:19:03;2.38;;;2.22;;
11996;SDS011;6058;48.704;9.474;2022-07-29T13:21:31;2.35;;;2.15;;
11996;SDS011;6058;48.704;9.474;2022-07-29T13:23:58;3.80;;;1.83;;
11996;SDS011;6058;48.704;9.474;2022-07-29T13:26:25;2.38;;;2.13;;
11996;SDS011;6058;48.704;9.474;2022-07-29T13:28:52;2.25;;;1.95;;
11996;SDS011;6058;48.704;9.474;2022-07-29T13:31:20;2.78;;;2.30;;
11996;SDS011;6058;48.704;9.474;2022-07-29T13:33:47;2.65;;;2.03;;
11996;SDS011;6058;48.704;9.474;2022-07-29T13:36:16;2.60;;;2.40;;
11996;SDS011;6058;48.704;9.474;2022-07-29T13:38:43;4.50;;;2.45;;
11996;SDS011;6058;48.704;9.474;2022-07-29T13:41:11;2.40;;;2.17;;
11996;SDS011;6058;48.704;9.474;2022-07-29T13:43:38;3.45;;;2.28;;
11996;SDS011;6058;48.704;9.474;2022-07-29T13:46:05;3.75;;;2.47;;
11996;SDS011;6058;48.704;9.474;2022-07-29T13:48:32;3.90;;;2.58;;
11996;SDS011;6058;48.704;9.474;2022-07-29T13:50:59;2.55;;;2.17;;
11996;SDS011;6058;48.704;9.474;2022-07-29T13:53:29;2.15;;;1.92;;
11996;SDS011;6058;48.704;9.474;2022-07-29T13:55:56;2.40;;;2.20;;
11996;SDS011;6058;48.704;9.474;2022-07-29T13:58:23;2.72;;;2.30;;
11996;SDS011;6058;48.704;9.474;2022-07-29T14:00:50;3.42;;;2.28;;
11996;SDS011;6058;48.704;9.474;2022-07-29T14:03:17;3.85;;;2.50;;
11996;SDS011;6058;48.704;9.474;2022-07-29T14:05:45;4.05;;;2.33;;
11996;SDS011;6058;48.704;9.474;2022-07-29T14:08:12;4.68;;;2.75;;
11996;SDS011;6058;48.704;9.474;2022-07-29T14:10:41;6.10;;;2.85;;
11996;SDS011;6058;48.704;9.474;2022-07-29T14:13:08;2.70;;;2.45;;
11996;SDS011;6058;48.704;9.474;2022-07-29T14:15:35;3.13;;;2.50;;
11996;SDS011;6058;48.704;9.474;2022-07-29T14:18:03;3.60;;;2.72;;
11996;SDS011;6058;48.704;9.474;2022-07-29T14:20:30;4.88;;;2.80;;
11996;SDS011;6058;48.704;9.474;2022-07-29T14:22:57;4.32;;;2.30;;
11996;SDS011;6058;48.704;9.474;2022-07-29T14:25:25;4.13;;;2.67;;
11996;SDS011;6058;48.704;9.474;2022-07-29T14:28:04;3.42;;;2.63;;
11996;SDS011;6058;48.704;9.474;2022-07-29T14:30:38;5.38;;;2.67;;
11996;SDS011;6058;48.704;9.474;2022-07-29T14:33:05;5.78;;;2.28;;
11996;SDS011;6058;48.704;9.474;2022-07-29T14:35:33;3.70;;;2.35;;
11996;SDS011;6058;48.704;9.474;2022-07-29T14:38:00;3.08;;;2.78;;
11996;SDS011;6058;48.704;9.474;2022-07-29T14:40:28;3.25;;;2.50;;
11996;SDS011;6058;48.704;9.474;2022-07-29T14:42:57;3.75;;;2.97;;
11996;SDS011;6058;48.704;9.474;2022-07-29T14:45:24;3.90;;;2.53;;
11996;SDS011;6058;48.704;9.474;2022-07-29T14:47:53;2.92;;;2.72;;
11996;SDS011;6058;48.704;9.474;2022-07-29T14:50:20;2.75;;;2.50;;
11996;SDS011;6058;48.704;9.474;2022-07-29T14:52:47;7.80;;;3.20;;
11996;SDS011;6058;48.704;9.474;2022-07-29T14:55:14;2.50;;;2.30;;
11996;SDS011;6058;48.704;9.474;2022-07-29T14:57:41;3.75;;;2.45;;
11996;SDS011;6058;48.704;9.474;2022-07-29T15:00:10;3.10;;;2.85;;
11996;SDS011;6058;48.704;9.474;2022-07-29T15:02:37;2.95;;;2.70;;
11996;SDS011;6058;48.704;9.474;2022-07-29T15:05:05;3.30;;;3.00;;
11996;SDS011;6058;48.704;9.474;2022-07-29T15:07:32;3.80;;;2.72;;
11996;SDS011;6058;48.704;9.474;2022-07-29T15:09:59;3.38;;;3.08;;
11996;SDS011;6058;48.704;9.474;2022-07-29T15:12:27;5.82;;;3.15;;
11996;SDS011;6058;48.704;9.474;2022-07-29T15:14:54;3.40;;;3.10;;
11996;SDS011;6058;48.704;9.474;2022-07-29T15:17:23;3.25;;;2.70;;
11996;SDS011;6058;48.704;9.474;2022-07-29T15:19:50;4.70;;;2.70;;
11996;SDS011;6058;48.704;9.474;2022-07-29T15:22:17;2.80;;;2.60;;
11996;SDS011;6058;48.704;9.474;2022-07-29T15:24:44;3.53;;;2.92;;
11996;SDS011;6058;48.704;9.474;2022-07-29T15:27:11;3.70;;;2.70;;